sensor_id;sensor_type;location;lat;lon;timestamp;temperature;humidity
17154;DHT22;8692;52.164;7.558;2022-10-31T00:01:38;13.60;99.90
17154;DHT22;8692;52.164;7.558;2022-10-31T00:04:06;13.50;99.90
17154;DHT22;8692;52.164;7.558;2022-10-31T00:06:37;13.50;99.90
17154;DHT22;8692;52.164;7.558;2022-10-31T00:09:05;13.50;99.90
17154;DHT22;8692;52.164;7.558;2022-10-31T00:11:34;13.50;99.90
17154;DHT22;8692;52.164;7.558;2022-10-31T00:14:03;13.50;99.90
17154;DHT22;8692;52.164;7.558;2022-10-31T00:16:31;13.50;99.90
17154;DHT22;8692;52.164;7.558;2022-10-31T00:19:02;13.50;99.90
17154;DHT22;8692;52.164;7.558;2022-10-31T00:21:32;13.50;99.90
17154;DHT22;8692;52.164;7.558;2022-10-31T00:24:01;13.50;99.90
17154;DHT22;8692;52.164;7.558;2022-10-31T00:26:31;13.40;99.90
17154;DHT22;8692;52.164;7.558;2022-10-31T00:29:03;13.40;99.90
17154;DHT22;8692;52.164;7.558;2022-10-31T00:31:31;13.40;99.90
17154;DHT22;8692;52.164;7.558;2022-10-31T00:34:00;13.40;99.90
17154;DHT22;8692;52.164;7.558;2022-10-31T00:36:29;13.40;99.90
17154;DHT22;8692;52.164;7.558;2022-10-31T00:38:58;13.30;99.90
17154;DHT22;8692;52.164;7.558;2022-10-31T00:41:27;13.30;99.90
17154;DHT22;8692;52.164;7.558;2022-10-31T00:43:55;13.30;99.90
17154;DHT22;8692;52.164;7.558;2022-10-31T00:46:27;13.20;99.90
17154;DHT22;8692;52.164;7.558;2022-10-31T00:48:55;13.30;99.90
17154;DHT22;8692;52.164;7.558;2022-10-31T00:51:24;13.20;99.90
17154;DHT22;8692;52.164;7.558;2022-10-31T00:53:52;13.20;99.90
17154;DHT22;8692;52.164;7.558;2022-10-31T00:56:21;13.20;99.90
17154;DHT22;8692;52.164;7.558;2022-10-31T00:58:51;13.20;99.90
17154;DHT22;8692;52.164;7.558;2022-10-31T01:01:21;13.20;99.90
17154;DHT22;8692;52.164;7.558;2022-10-31T01:03:51;13.10;99.90
17154;DHT22;8692;52.164;7.558;2022-10-31T01:06:19;13.10;99.90
17154;DHT22;8692;52.164;7.558;2022-10-31T01:08:47;13.10;99.90
17154;DHT22;8692;52.164;7.558;2022-10-31T01:11:18;13.10;99.90
17154;DHT22;8692;52.164;7.558;2022-10-31T01:13:50;13.00;99.90
17154;DHT22;8692;52.164;7.558;2022-10-31T01:16:21;13.00;99.90
17154;DHT22;8692;52.164;7.558;2022-10-31T01:18:51;13.00;99.90
17154;DHT22;8692;52.164;7.558;2022-10-31T01:21:20;13.00;99.90
17154;DHT22;8692;52.164;7.558;2022-10-31T01:23:49;13.00;99.90
17154;DHT22;8692;52.164;7.558;2022-10-31T01:26:21;12.90;99.90
17154;DHT22;8692;52.164;7.558;2022-10-31T01:28:51;12.90;99.90
17154;DHT22;8692;52.164;7.558;2022-10-31T01:31:22;12.90;99.90
17154;DHT22;8692;52.164;7.558;2022-10-31T01:33:51;12.80;99.90
17154;DHT22;8692;52.164;7.558;2022-10-31T01:36:22;12.80;99.90
17154;DHT22;8692;52.164;7.558;2022-10-31T01:38:52;12.80;99.90
17154;DHT22;8692;52.164;7.558;2022-10-31T01:41:26;12.80;99.90
17154;DHT22;8692;52.164;7.558;2022-10-31T01:43:58;12.80;99.90
17154;DHT22;8692;52.164;7.558;2022-10-31T01:46:29;12.70;99.90
17154;DHT22;8692;52.164;7.558;2022-10-31T01:49:03;12.70;99.90
17154;DHT22;8692;52.164;7.558;2022-10-31T01:51:34;12.70;99.90
17154;DHT22;8692;52.164;7.558;2022-10-31T01:54:07;12.60;99.90
17154;DHT22;8692;52.164;7.558;2022-10-31T01:56:39;12.60;99.90
17154;DHT22;8692;52.164;7.558;2022-10-31T01:59:12;12.60;99.90
17154;DHT22;8692;52.164;7.558;2022-10-31T02:01:43;12.60;99.90
17154;DHT22;8692;52.164;7.558;2022-10-31T02:04:13;12.50;99.90
17154;DHT22;8692;52.164;7.558;2022-10-31T02:06:46;12.50;99.90
17154;DHT22;8692;52.164;7.558;2022-10-31T02:09:15;12.50;99.90
17154;DHT22;8692;52.164;7.558;2022-10-31T02:11:46;12.50;99.90
17154;DHT22;8692;52.164;7.558;2022-10-31T02:14:14;12.40;99.90
17154;DHT22;8692;52.164;7.558;2022-10-31T02:16:44;12.40;99.90
17154;DHT22;8692;52.164;7.558;2022-10-31T02:19:17;12.40;99.90
17154;DHT22;8692;52.164;7.558;2022-10-31T02:21:55;12.40;99.90
17154;DHT22;8692;52.164;7.558;2022-10-31T02:24:43;12.40;99.90
17154;DHT22;8692;52.164;7.558;2022-10-31T02:27:38;12.30;99.90
17154;DHT22;8692;52.164;7.558;2022-10-31T02:30:16;12.30;99.90
17154;DHT22;8692;52.164;7.558;2022-10-31T02:33:00;12.30;99.90
17154;DHT22;8692;52.164;7.558;2022-10-31T02:35:47;12.20;99.90
17154;DHT22;8692;52.164;7.558;2022-10-31T02:38:25;12.20;99.90
17154;DHT22;8692;52.164;7.558;2022-10-31T02:41:03;12.20;99.90
17154;DHT22;8692;52.164;7.558;2022-10-31T02:43:45;12.20;99.90
17154;DHT22;8692;52.164;7.558;2022-10-31T02:46:26;12.10;99.90
17154;DHT22;8692;52.164;7.558;2022-10-31T02:49:02;12.10;99.90
17154;DHT22;8692;52.164;7.558;2022-10-31T02:51:31;12.10;99.90
17154;DHT22;8692;52.164;7.558;2022-10-31T02:54:00;12.00;99.90
17154;DHT22;8692;52.164;7.558;2022-10-31T02:56:31;12.00;99.90
17154;DHT22;8692;52.164;7.558;2022-10-31T02:59:01;12.00;99.90
17154;DHT22;8692;52.164;7.558;2022-10-31T03:01:53;11.90;99.90
17154;DHT22;8692;52.164;7.558;2022-10-31T03:04:46;11.90;99.90
17154;DHT22;8692;52.164;7.558;2022-10-31T03:07:21;11.90;99.90
17154;DHT22;8692;52.164;7.558;2022-10-31T03:09:59;11.90;99.90
17154;DHT22;8692;52.164;7.558;2022-10-31T03:12:38;11.90;99.90
17154;DHT22;8692;52.164;7.558;2022-10-31T03:15:18;11.90;99.90
17154;DHT22;8692;52.164;7.558;2022-10-31T03:17:54;11.80;99.90
17154;DHT22;8692;52.164;7.558;2022-10-31T03:20:29;11.80;99.90
17154;DHT22;8692;52.164;7.558;2022-10-31T03:22:59;11.80;99.90
17154;DHT22;8692;52.164;7.558;2022-10-31T03:25:29;11.80;99.90
17154;DHT22;8692;52.164;7.558;2022-10-31T03:27:59;11.70;99.90
17154;DHT22;8692;52.164;7.558;2022-10-31T03:30:35;11.70;99.90
17154;DHT22;8692;52.164;7.558;2022-10-31T03:33:09;11.70;99.90
17154;DHT22;8692;52.164;7.558;2022-10-31T03:35:42;11.70;99.90
17154;DHT22;8692;52.164;7.558;2022-10-31T03:38:15;11.70;99.90
17154;DHT22;8692;52.164;7.558;2022-10-31T03:40:47;11.70;99.90
17154;DHT22;8692;52.164;7.558;2022-10-31T03:43:18;11.70;99.90
17154;DHT22;8692;52.164;7.558;2022-10-31T03:45:48;11.70;99.90
17154;DHT22;8692;52.164;7.558;2022-10-31T03:48:18;11.60;99.90
17154;DHT22;8692;52.164;7.558;2022-10-31T03:50:56;11.60;99.90
17154;DHT22;8692;52.164;7.558;2022-10-31T03:53:32;11.60;99.90
17154;DHT22;8692;52.164;7.558;2022-10-31T03:56:07;11.60;99.90
17154;DHT22;8692;52.164;7.558;2022-10-31T03:58:43;11.60;99.90
17154;DHT22;8692;52.164;7.558;2022-10-31T04:01:16;11.60;99.90
17154;DHT22;8692;52.164;7.558;2022-10-31T04:03:47;11.60;99.90
17154;DHT22;8692;52.164;7.558;2022-10-31T04:06:20;11.60;99.90
17154;DHT22;8692;52.164;7.558;2022-10-31T04:08:52;11.60;99.90
17154;DHT22;8692;52.164;7.558;2022-10-31T04:11:25;11.60;99.90
17154;DHT22;8692;52.164;7.558;2022-10-31T04:14:29;11.60;99.90
17154;DHT22;8692;52.164;7.558;2022-10-31T04:17:00;11.50;99.90
17154;DHT22;8692;52.164;7.558;2022-10-31T04:19:34;11.50;99.90
17154;DHT22;8692;52.164;7.558;2022-10-31T04:22:04;11.50;99.90
17154;DHT22;8692;52.164;7.558;2022-10-31T04:24:32;11.50;99.90
17154;DHT22;8692;52.164;7.558;2022-10-31T04:27:00;11.50;99.90
17154;DHT22;8692;52.164;7.558;2022-10-31T04:29:31;11.50;99.90
17154;DHT22;8692;52.164;7.558;2022-10-31T04:31:59;11.50;99.90
17154;DHT22;8692;52.164;7.558;2022-10-31T04:34:27;11.40;99.90
17154;DHT22;8692;52.164;7.558;2022-10-31T04:36:55;11.40;99.90
17154;DHT22;8692;52.164;7.558;2022-10-31T04:39:25;11.40;99.90
17154;DHT22;8692;52.164;7.558;2022-10-31T04:42:16;11.40;99.90
17154;DHT22;8692;52.164;7.558;2022-10-31T04:44:44;11.30;99.90
17154;DHT22;8692;52.164;7.558;2022-10-31T04:47:15;11.30;99.90
17154;DHT22;8692;52.164;7.558;2022-10-31T04:49:45;11.30;99.90
17154;DHT22;8692;52.164;7.558;2022-10-31T04:52:16;11.30;99.90
17154;DHT22;8692;52.164;7.558;2022-10-31T04:54:45;11.20;99.90
17154;DHT22;8692;52.164;7.558;2022-10-31T04:57:40;11.20;99.90
17154;DHT22;8692;52.164;7.558;2022-10-31T05:00:14;11.20;99.90
17154;DHT22;8692;52.164;7.558;2022-10-31T05:02:43;11.20;99.90
17154;DHT22;8692;52.164;7.558;2022-10-31T05:05:15;11.10;99.90
17154;DHT22;8692;52.164;7.558;2022-10-31T05:07:47;11.10;99.90
17154;DHT22;8692;52.164;7.558;2022-10-31T05:10:21;11.10;99.90
17154;DHT22;8692;52.164;7.558;2022-10-31T05:12:51;11.10;99.90
17154;DHT22;8692;52.164;7.558;2022-10-31T05:15:38;11.10;99.90
17154;DHT22;8692;52.164;7.558;2022-10-31T05:18:45;11.00;99.90
17154;DHT22;8692;52.164;7.558;2022-10-31T05:21:31;11.00;99.90
17154;DHT22;8692;52.164;7.558;2022-10-31T05:24:02;11.00;99.90
17154;DHT22;8692;52.164;7.558;2022-10-31T05:26:34;11.00;99.90
17154;DHT22;8692;52.164;7.558;2022-10-31T05:29:04;10.90;99.90
17154;DHT22;8692;52.164;7.558;2022-10-31T05:31:33;10.90;99.90
17154;DHT22;8692;52.164;7.558;2022-10-31T05:34:05;10.90;99.90
17154;DHT22;8692;52.164;7.558;2022-10-31T05:36:52;10.90;99.90
17154;DHT22;8692;52.164;7.558;2022-10-31T05:39:22;10.90;99.90
17154;DHT22;8692;52.164;7.558;2022-10-31T05:41:56;10.80;99.90
17154;DHT22;8692;52.164;7.558;2022-10-31T05:44:26;10.80;99.90
17154;DHT22;8692;52.164;7.558;2022-10-31T05:47:17;10.80;99.90
17154;DHT22;8692;52.164;7.558;2022-10-31T05:49:54;10.80;99.90
17154;DHT22;8692;52.164;7.558;2022-10-31T05:52:41;10.70;99.90
17154;DHT22;8692;52.164;7.558;2022-10-31T05:55:23;10.70;99.90
17154;DHT22;8692;52.164;7.558;2022-10-31T05:58:05;10.70;99.90
17154;DHT22;8692;52.164;7.558;2022-10-31T06:00:35;10.70;99.90
17154;DHT22;8692;52.164;7.558;2022-10-31T06:03:09;10.70;99.90
17154;DHT22;8692;52.164;7.558;2022-10-31T06:05:53;10.70;99.90
17154;DHT22;8692;52.164;7.558;2022-10-31T06:08:30;10.70;99.90
17154;DHT22;8692;52.164;7.558;2022-10-31T06:11:03;10.70;99.90
17154;DHT22;8692;52.164;7.558;2022-10-31T06:13:51;10.70;99.90
17154;DHT22;8692;52.164;7.558;2022-10-31T06:16:24;10.70;99.90
17154;DHT22;8692;52.164;7.558;2022-10-31T06:18:55;10.70;99.90
17154;DHT22;8692;52.164;7.558;2022-10-31T06:21:24;10.70;99.90
17154;DHT22;8692;52.164;7.558;2022-10-31T06:23:55;10.70;99.90
17154;DHT22;8692;52.164;7.558;2022-10-31T06:26:41;10.70;99.90
17154;DHT22;8692;52.164;7.558;2022-10-31T06:29:10;10.70;99.90
17154;DHT22;8692;52.164;7.558;2022-10-31T06:31:59;10.70;99.90
17154;DHT22;8692;52.164;7.558;2022-10-31T06:34:28;10.70;99.90
17154;DHT22;8692;52.164;7.558;2022-10-31T06:36:56;10.70;99.90
17154;DHT22;8692;52.164;7.558;2022-10-31T06:39:27;10.70;99.90
17154;DHT22;8692;52.164;7.558;2022-10-31T06:41:55;10.70;99.90
17154;DHT22;8692;52.164;7.558;2022-10-31T06:44:27;10.70;99.90
17154;DHT22;8692;52.164;7.558;2022-10-31T06:46:58;10.70;99.90
17154;DHT22;8692;52.164;7.558;2022-10-31T06:49:44;10.70;99.90
17154;DHT22;8692;52.164;7.558;2022-10-31T06:52:15;10.70;99.90
17154;DHT22;8692;52.164;7.558;2022-10-31T06:54:45;10.70;99.90
17154;DHT22;8692;52.164;7.558;2022-10-31T06:57:14;10.70;99.90
17154;DHT22;8692;52.164;7.558;2022-10-31T06:59:43;10.80;99.90
17154;DHT22;8692;52.164;7.558;2022-10-31T07:02:38;10.80;99.90
17154;DHT22;8692;52.164;7.558;2022-10-31T07:05:06;10.80;99.90
17154;DHT22;8692;52.164;7.558;2022-10-31T07:07:34;10.80;99.90
17154;DHT22;8692;52.164;7.558;2022-10-31T07:10:03;10.80;99.90
17154;DHT22;8692;52.164;7.558;2022-10-31T07:12:46;10.80;99.90
17154;DHT22;8692;52.164;7.558;2022-10-31T07:15:19;10.80;99.90
17154;DHT22;8692;52.164;7.558;2022-10-31T07:17:47;10.80;99.90
17154;DHT22;8692;52.164;7.558;2022-10-31T07:20:16;10.80;99.90
17154;DHT22;8692;52.164;7.558;2022-10-31T07:22:46;10.80;99.90
17154;DHT22;8692;52.164;7.558;2022-10-31T07:25:17;10.80;99.90
17154;DHT22;8692;52.164;7.558;2022-10-31T07:28:08;10.90;99.90
17154;DHT22;8692;52.164;7.558;2022-10-31T07:30:39;10.90;99.90
17154;DHT22;8692;52.164;7.558;2022-10-31T07:33:08;10.90;99.90
17154;DHT22;8692;52.164;7.558;2022-10-31T07:35:55;10.90;99.90
17154;DHT22;8692;52.164;7.558;2022-10-31T07:38:28;10.90;99.90
17154;DHT22;8692;52.164;7.558;2022-10-31T07:40:59;10.90;99.90
17154;DHT22;8692;52.164;7.558;2022-10-31T07:43:29;10.90;99.90
17154;DHT22;8692;52.164;7.558;2022-10-31T07:46:21;11.00;99.90
17154;DHT22;8692;52.164;7.558;2022-10-31T07:49:08;11.00;99.90
17154;DHT22;8692;52.164;7.558;2022-10-31T07:52:08;11.10;99.90
17154;DHT22;8692;52.164;7.558;2022-10-31T07:54:55;11.10;99.90
17154;DHT22;8692;52.164;7.558;2022-10-31T07:57:23;11.20;99.90
17154;DHT22;8692;52.164;7.558;2022-10-31T07:59:54;11.20;99.90
17154;DHT22;8692;52.164;7.558;2022-10-31T08:02:24;11.20;99.90
17154;DHT22;8692;52.164;7.558;2022-10-31T08:05:28;11.30;99.90
17154;DHT22;8692;52.164;7.558;2022-10-31T08:08:15;11.30;99.90
17154;DHT22;8692;52.164;7.558;2022-10-31T08:10:45;11.30;99.90
17154;DHT22;8692;52.164;7.558;2022-10-31T08:13:14;11.30;99.90
17154;DHT22;8692;52.164;7.558;2022-10-31T08:15:45;11.30;99.90
17154;DHT22;8692;52.164;7.558;2022-10-31T08:18:19;11.40;99.90
17154;DHT22;8692;52.164;7.558;2022-10-31T08:20:53;11.40;99.90
17154;DHT22;8692;52.164;7.558;2022-10-31T08:23:22;11.40;99.90
17154;DHT22;8692;52.164;7.558;2022-10-31T08:25:52;11.50;99.90
17154;DHT22;8692;52.164;7.558;2022-10-31T08:28:22;11.50;99.90
17154;DHT22;8692;52.164;7.558;2022-10-31T08:30:52;11.50;99.90
17154;DHT22;8692;52.164;7.558;2022-10-31T08:33:39;11.60;99.90
17154;DHT22;8692;52.164;7.558;2022-10-31T08:36:08;11.60;99.90
17154;DHT22;8692;52.164;7.558;2022-10-31T08:39:08;11.60;99.90
17154;DHT22;8692;52.164;7.558;2022-10-31T08:41:38;11.50;99.90
17154;DHT22;8692;52.164;7.558;2022-10-31T08:44:10;11.60;99.90
17154;DHT22;8692;52.164;7.558;2022-10-31T08:46:39;11.60;99.90
17154;DHT22;8692;52.164;7.558;2022-10-31T08:49:08;11.60;99.90
17154;DHT22;8692;52.164;7.558;2022-10-31T08:51:41;11.70;99.90
17154;DHT22;8692;52.164;7.558;2022-10-31T08:54:10;11.70;99.90
17154;DHT22;8692;52.164;7.558;2022-10-31T08:56:56;11.70;99.90
17154;DHT22;8692;52.164;7.558;2022-10-31T08:59:38;11.80;99.90
17154;DHT22;8692;52.164;7.558;2022-10-31T09:02:23;11.80;99.90
17154;DHT22;8692;52.164;7.558;2022-10-31T09:04:57;11.90;99.90
17154;DHT22;8692;52.164;7.558;2022-10-31T09:07:27;11.90;99.90
17154;DHT22;8692;52.164;7.558;2022-10-31T09:09:55;12.00;99.90
17154;DHT22;8692;52.164;7.558;2022-10-31T09:12:30;12.10;99.90
17154;DHT22;8692;52.164;7.558;2022-10-31T09:15:28;12.10;99.90
17154;DHT22;8692;52.164;7.558;2022-10-31T09:18:15;12.20;99.90
17154;DHT22;8692;52.164;7.558;2022-10-31T09:20:51;12.30;99.90
17154;DHT22;8692;52.164;7.558;2022-10-31T09:23:20;12.30;99.90
17154;DHT22;8692;52.164;7.558;2022-10-31T09:25:50;12.40;99.90
17154;DHT22;8692;52.164;7.558;2022-10-31T09:28:44;12.40;99.90
17154;DHT22;8692;52.164;7.558;2022-10-31T09:31:14;12.50;99.90
17154;DHT22;8692;52.164;7.558;2022-10-31T09:33:48;12.60;99.90
17154;DHT22;8692;52.164;7.558;2022-10-31T09:36:36;12.60;99.90
17154;DHT22;8692;52.164;7.558;2022-10-31T09:39:12;12.70;99.90
17154;DHT22;8692;52.164;7.558;2022-10-31T09:42:25;12.80;99.90
17154;DHT22;8692;52.164;7.558;2022-10-31T09:45:04;12.80;99.90
17154;DHT22;8692;52.164;7.558;2022-10-31T09:47:44;12.90;99.90
17154;DHT22;8692;52.164;7.558;2022-10-31T09:50:36;13.00;99.90
17154;DHT22;8692;52.164;7.558;2022-10-31T09:53:37;13.10;99.90
17154;DHT22;8692;52.164;7.558;2022-10-31T09:56:13;13.10;99.90
17154;DHT22;8692;52.164;7.558;2022-10-31T09:58:47;13.20;99.90
17154;DHT22;8692;52.164;7.558;2022-10-31T10:01:25;13.20;99.90
17154;DHT22;8692;52.164;7.558;2022-10-31T10:03:59;13.30;99.90
17154;DHT22;8692;52.164;7.558;2022-10-31T10:06:49;13.40;99.90
17154;DHT22;8692;52.164;7.558;2022-10-31T10:09:56;13.40;99.90
17154;DHT22;8692;52.164;7.558;2022-10-31T10:13:09;13.50;99.90
17154;DHT22;8692;52.164;7.558;2022-10-31T10:15:56;13.50;99.90
17154;DHT22;8692;52.164;7.558;2022-10-31T10:18:33;13.60;99.90
17154;DHT22;8692;52.164;7.558;2022-10-31T10:21:20;13.70;99.90
17154;DHT22;8692;52.164;7.558;2022-10-31T10:24:00;13.70;99.90
17154;DHT22;8692;52.164;7.558;2022-10-31T10:26:36;13.70;99.90
17154;DHT22;8692;52.164;7.558;2022-10-31T10:29:19;13.80;99.90
17154;DHT22;8692;52.164;7.558;2022-10-31T10:31:49;13.80;99.90
17154;DHT22;8692;52.164;7.558;2022-10-31T10:34:22;13.80;99.90
17154;DHT22;8692;52.164;7.558;2022-10-31T10:36:56;13.90;99.90
17154;DHT22;8692;52.164;7.558;2022-10-31T10:39:29;13.90;99.90
17154;DHT22;8692;52.164;7.558;2022-10-31T10:42:00;14.00;99.90
17154;DHT22;8692;52.164;7.558;2022-10-31T10:44:48;14.00;99.90
17154;DHT22;8692;52.164;7.558;2022-10-31T10:47:41;14.00;99.90
17154;DHT22;8692;52.164;7.558;2022-10-31T10:50:14;14.10;99.90
17154;DHT22;8692;52.164;7.558;2022-10-31T10:52:50;14.10;99.90
17154;DHT22;8692;52.164;7.558;2022-10-31T10:55:31;14.20;99.90
17154;DHT22;8692;52.164;7.558;2022-10-31T10:58:03;14.30;99.90
17154;DHT22;8692;52.164;7.558;2022-10-31T11:00:36;14.30;99.90
17154;DHT22;8692;52.164;7.558;2022-10-31T11:03:06;14.40;99.90
17154;DHT22;8692;52.164;7.558;2022-10-31T11:05:36;14.40;99.90
17154;DHT22;8692;52.164;7.558;2022-10-31T11:08:06;14.50;99.90
17154;DHT22;8692;52.164;7.558;2022-10-31T11:10:37;14.50;99.90
17154;DHT22;8692;52.164;7.558;2022-10-31T11:13:21;14.50;99.90
17154;DHT22;8692;52.164;7.558;2022-10-31T11:15:59;14.60;99.90
17154;DHT22;8692;52.164;7.558;2022-10-31T11:18:29;14.60;99.90
17154;DHT22;8692;52.164;7.558;2022-10-31T11:21:02;14.70;99.90
17154;DHT22;8692;52.164;7.558;2022-10-31T11:23:33;14.80;99.90
17154;DHT22;8692;52.164;7.558;2022-10-31T11:26:03;14.80;99.90
17154;DHT22;8692;52.164;7.558;2022-10-31T11:28:40;14.90;99.90
17154;DHT22;8692;52.164;7.558;2022-10-31T11:31:12;14.90;99.90
17154;DHT22;8692;52.164;7.558;2022-10-31T11:33:47;15.00;99.90
17154;DHT22;8692;52.164;7.558;2022-10-31T11:36:18;15.00;99.90
17154;DHT22;8692;52.164;7.558;2022-10-31T11:38:52;15.10;99.90
17154;DHT22;8692;52.164;7.558;2022-10-31T11:41:26;15.10;99.90
17154;DHT22;8692;52.164;7.558;2022-10-31T11:43:59;15.20;99.90
17154;DHT22;8692;52.164;7.558;2022-10-31T11:46:33;15.30;99.90
17154;DHT22;8692;52.164;7.558;2022-10-31T11:49:02;15.30;99.90
17154;DHT22;8692;52.164;7.558;2022-10-31T11:51:34;15.40;99.90
17154;DHT22;8692;52.164;7.558;2022-10-31T11:54:04;15.50;99.90
17154;DHT22;8692;52.164;7.558;2022-10-31T11:56:38;15.60;99.90
17154;DHT22;8692;52.164;7.558;2022-10-31T11:59:21;15.70;99.90
17154;DHT22;8692;52.164;7.558;2022-10-31T12:01:51;15.70;99.90
17154;DHT22;8692;52.164;7.558;2022-10-31T12:04:34;15.70;99.90
17154;DHT22;8692;52.164;7.558;2022-10-31T12:07:03;15.70;99.90
17154;DHT22;8692;52.164;7.558;2022-10-31T12:09:33;15.80;99.90
17154;DHT22;8692;52.164;7.558;2022-10-31T12:12:31;15.80;99.90
17154;DHT22;8692;52.164;7.558;2022-10-31T12:15:28;15.80;99.90
17154;DHT22;8692;52.164;7.558;2022-10-31T12:18:17;15.90;99.90
17154;DHT22;8692;52.164;7.558;2022-10-31T12:21:03;15.90;99.90
17154;DHT22;8692;52.164;7.558;2022-10-31T12:23:41;15.90;99.90
17154;DHT22;8692;52.164;7.558;2022-10-31T12:26:17;16.00;99.90
17154;DHT22;8692;52.164;7.558;2022-10-31T12:29:02;16.00;99.90
17154;DHT22;8692;52.164;7.558;2022-10-31T12:31:43;16.20;99.90
17154;DHT22;8692;52.164;7.558;2022-10-31T12:37:39;16.30;99.90
17154;DHT22;8692;52.164;7.558;2022-10-31T12:40:26;16.30;99.90
17154;DHT22;8692;52.164;7.558;2022-10-31T12:43:07;16.40;99.90
17154;DHT22;8692;52.164;7.558;2022-10-31T12:45:51;16.40;99.90
17154;DHT22;8692;52.164;7.558;2022-10-31T12:51:17;16.50;99.90
17154;DHT22;8692;52.164;7.558;2022-10-31T12:54:02;16.50;99.90
17154;DHT22;8692;52.164;7.558;2022-10-31T12:56:42;16.50;99.90
17154;DHT22;8692;52.164;7.558;2022-10-31T12:59:27;16.60;99.90
17154;DHT22;8692;52.164;7.558;2022-10-31T13:02:02;16.60;99.90
17154;DHT22;8692;52.164;7.558;2022-10-31T13:04:40;16.70;99.90
17154;DHT22;8692;52.164;7.558;2022-10-31T13:07:15;16.70;99.90
17154;DHT22;8692;52.164;7.558;2022-10-31T13:09:50;16.70;99.90
17154;DHT22;8692;52.164;7.558;2022-10-31T13:12:22;16.70;99.90
17154;DHT22;8692;52.164;7.558;2022-10-31T13:14:53;16.70;99.90
17154;DHT22;8692;52.164;7.558;2022-10-31T13:17:27;16.70;99.90
17154;DHT22;8692;52.164;7.558;2022-10-31T13:20:11;16.80;99.90
17154;DHT22;8692;52.164;7.558;2022-10-31T13:22:44;16.80;99.90
17154;DHT22;8692;52.164;7.558;2022-10-31T13:25:18;16.80;99.90
17154;DHT22;8692;52.164;7.558;2022-10-31T13:27:53;16.80;99.90
17154;DHT22;8692;52.164;7.558;2022-10-31T13:30:24;16.80;99.90
17154;DHT22;8692;52.164;7.558;2022-10-31T13:32:58;16.80;99.90
17154;DHT22;8692;52.164;7.558;2022-10-31T13:35:40;16.80;99.90
17154;DHT22;8692;52.164;7.558;2022-10-31T13:38:16;16.80;99.90
17154;DHT22;8692;52.164;7.558;2022-10-31T13:40:52;16.70;99.90
17154;DHT22;8692;52.164;7.558;2022-10-31T13:43:32;16.70;99.90
17154;DHT22;8692;52.164;7.558;2022-10-31T13:46:21;16.70;99.90
17154;DHT22;8692;52.164;7.558;2022-10-31T13:48:50;16.70;99.90
17154;DHT22;8692;52.164;7.558;2022-10-31T13:51:29;16.70;99.90
17154;DHT22;8692;52.164;7.558;2022-10-31T13:54:00;16.70;99.90
17154;DHT22;8692;52.164;7.558;2022-10-31T13:56:32;16.70;99.90
17154;DHT22;8692;52.164;7.558;2022-10-31T13:59:19;16.70;99.90
17154;DHT22;8692;52.164;7.558;2022-10-31T14:01:51;16.70;99.90
17154;DHT22;8692;52.164;7.558;2022-10-31T14:04:23;16.70;99.90
17154;DHT22;8692;52.164;7.558;2022-10-31T14:06:59;16.70;99.90
17154;DHT22;8692;52.164;7.558;2022-10-31T14:09:34;16.70;99.90
17154;DHT22;8692;52.164;7.558;2022-10-31T14:12:05;16.70;99.90
17154;DHT22;8692;52.164;7.558;2022-10-31T14:14:42;16.70;99.90
17154;DHT22;8692;52.164;7.558;2022-10-31T14:17:19;16.70;99.90
17154;DHT22;8692;52.164;7.558;2022-10-31T14:20:02;16.70;99.90
17154;DHT22;8692;52.164;7.558;2022-10-31T14:22:39;16.70;99.90
17154;DHT22;8692;52.164;7.558;2022-10-31T14:25:31;16.70;99.90
17154;DHT22;8692;52.164;7.558;2022-10-31T14:28:17;16.70;99.90
17154;DHT22;8692;52.164;7.558;2022-10-31T14:30:52;16.70;99.90
17154;DHT22;8692;52.164;7.558;2022-10-31T14:33:22;16.70;99.90
17154;DHT22;8692;52.164;7.558;2022-10-31T14:35:56;16.70;99.90
17154;DHT22;8692;52.164;7.558;2022-10-31T14:38:46;16.70;99.90
17154;DHT22;8692;52.164;7.558;2022-10-31T14:41:43;16.70;99.90
17154;DHT22;8692;52.164;7.558;2022-10-31T14:44:50;16.70;99.90
17154;DHT22;8692;52.164;7.558;2022-10-31T14:47:31;16.70;99.90
17154;DHT22;8692;52.164;7.558;2022-10-31T14:50:23;16.70;99.90
17154;DHT22;8692;52.164;7.558;2022-10-31T14:52:55;16.70;99.90
17154;DHT22;8692;52.164;7.558;2022-10-31T14:55:26;16.70;99.90
17154;DHT22;8692;52.164;7.558;2022-10-31T14:58:00;16.60;99.90
17154;DHT22;8692;52.164;7.558;2022-10-31T15:00:33;16.60;99.90
17154;DHT22;8692;52.164;7.558;2022-10-31T15:03:11;16.60;99.90
17154;DHT22;8692;52.164;7.558;2022-10-31T15:05:46;16.60;99.90
17154;DHT22;8692;52.164;7.558;2022-10-31T15:08:32;16.60;99.90
17154;DHT22;8692;52.164;7.558;2022-10-31T15:11:10;16.60;99.90
17154;DHT22;8692;52.164;7.558;2022-10-31T15:13:43;16.60;99.90
17154;DHT22;8692;52.164;7.558;2022-10-31T15:16:14;16.60;99.90
17154;DHT22;8692;52.164;7.558;2022-10-31T15:18:50;16.60;99.90
17154;DHT22;8692;52.164;7.558;2022-10-31T15:21:22;16.60;99.90
17154;DHT22;8692;52.164;7.558;2022-10-31T15:23:52;16.60;99.90
17154;DHT22;8692;52.164;7.558;2022-10-31T15:26:27;16.60;99.90
17154;DHT22;8692;52.164;7.558;2022-10-31T15:29:00;16.50;99.90
17154;DHT22;8692;52.164;7.558;2022-10-31T15:31:29;16.50;99.90
17154;DHT22;8692;52.164;7.558;2022-10-31T15:34:05;16.50;99.90
17154;DHT22;8692;52.164;7.558;2022-10-31T15:36:34;16.50;99.90
17154;DHT22;8692;52.164;7.558;2022-10-31T15:39:04;16.40;99.90
17154;DHT22;8692;52.164;7.558;2022-10-31T15:41:42;16.40;99.90
17154;DHT22;8692;52.164;7.558;2022-10-31T15:44:23;16.40;99.90
17154;DHT22;8692;52.164;7.558;2022-10-31T15:46:56;16.40;99.90
17154;DHT22;8692;52.164;7.558;2022-10-31T15:49:33;16.30;99.90
17154;DHT22;8692;52.164;7.558;2022-10-31T15:52:15;16.30;99.90
17154;DHT22;8692;52.164;7.558;2022-10-31T15:54:50;16.30;99.90
17154;DHT22;8692;52.164;7.558;2022-10-31T15:57:20;16.20;99.90
17154;DHT22;8692;52.164;7.558;2022-10-31T15:59:49;16.20;99.90
17154;DHT22;8692;52.164;7.558;2022-10-31T16:02:19;16.20;99.90
17154;DHT22;8692;52.164;7.558;2022-10-31T16:04:54;16.10;99.90
17154;DHT22;8692;52.164;7.558;2022-10-31T16:07:22;16.10;99.90
17154;DHT22;8692;52.164;7.558;2022-10-31T16:09:56;16.10;99.90
17154;DHT22;8692;52.164;7.558;2022-10-31T16:12:30;16.00;99.90
17154;DHT22;8692;52.164;7.558;2022-10-31T16:14:59;16.00;99.90
17154;DHT22;8692;52.164;7.558;2022-10-31T16:17:28;15.90;99.90
17154;DHT22;8692;52.164;7.558;2022-10-31T16:19:59;15.90;99.90
17154;DHT22;8692;52.164;7.558;2022-10-31T16:22:31;15.90;99.90
17154;DHT22;8692;52.164;7.558;2022-10-31T16:25:03;15.90;99.90
17154;DHT22;8692;52.164;7.558;2022-10-31T16:27:35;15.90;99.90
17154;DHT22;8692;52.164;7.558;2022-10-31T16:30:29;15.80;99.90
17154;DHT22;8692;52.164;7.558;2022-10-31T16:32:59;15.80;99.90
17154;DHT22;8692;52.164;7.558;2022-10-31T16:35:32;15.70;99.90
17154;DHT22;8692;52.164;7.558;2022-10-31T16:38:01;15.70;99.90
17154;DHT22;8692;52.164;7.558;2022-10-31T16:40:32;15.60;99.90
17154;DHT22;8692;52.164;7.558;2022-10-31T16:43:03;15.60;99.90
17154;DHT22;8692;52.164;7.558;2022-10-31T16:45:32;15.60;99.90